Time;durP1;ratioP1;P1;durP2;ratioP2;P2;SDS_P1;SDS_P2;PMS_P1;PMS_P2;Temp;Humidity;BMP_temperature;BMP_pressure;BME280_temperature;BME280_humidity;BME280_pressure;Samples;Min_cycle;Max_cycle;Signal;HPM_P1;HPM_P2
2023/03/06 00:01:25;;;;;;;20.52;10.32;;;4.10;97.90;;;;;;5005452;28;20200;-74
2023/03/06 00:03:51;;;;;;;16.55;9.13;;;4.10;97.90;;;;;;4987068;28;20113;-75
2023/03/06 00:06:17;;;;;;;17.13;9.52;;;4.10;98.00;;;;;;5005084;28;20034;-75
2023/03/06 00:08:43;;;;;;;16.75;9.10;;;4.10;97.90;;;;;;5004685;28;20038;-73
2023/03/06 00:11:13;;;;;;;16.15;9.00;;;4.10;97.70;;;;;;5011330;28;20090;-73
2023/03/06 00:13:39;;;;;;;17.88;9.68;;;4.10;97.50;;;;;;4981159;28;20038;-74
2023/03/06 00:16:05;;;;;;;21.23;10.52;;;4.20;97.50;;;;;;5004920;28;20068;-72
2023/03/06 00:18:32;;;;;;;19.48;9.68;;;4.10;97.30;;;;;;4987570;28;20322;-74
2023/03/06 00:20:58;;;;;;;19.13;10.20;;;4.10;97.50;;;;;;5004567;28;20045;-73
2023/03/06 00:23:24;;;;;;;17.73;9.85;;;4.10;97.60;;;;;;5005066;28;20046;-74
2023/03/06 00:25:50;;;;;;;21.83;10.05;;;4.10;97.50;;;;;;5004122;28;20038;-74
2023/03/06 00:28:16;;;;;;;18.17;9.93;;;4.10;97.50;;;;;;5004455;28;20018;-74
2023/03/06 06:01:52;;;;;;;17.40;8.75;;;3.50;97.80;;;;;;5766076;23;20058;-74
2023/03/06 06:04:18;;;;;;;15.63;7.80;;;3.60;97.40;;;;;;5001212;28;20034;-75
2023/03/06 06:06:44;;;;;;;17.77;9.38;;;3.60;97.30;;;;;;5002991;28;20030;-76
2023/03/06 06:09:10;;;;;;;15.65;8.82;;;3.60;97.10;;;;;;5002577;28;20287;-74
2023/03/06 06:11:35;;;;;;;13.40;7.43;;;3.60;97.20;;;;;;4985657;28;20031;-74
2023/03/06 06:14:01;;;;;;;14.40;7.05;;;3.60;97.30;;;;;;5004657;28;20038;-76
2023/03/06 06:16:27;;;;;;;13.63;7.18;;;3.60;97.30;;;;;;5003043;28;20201;-74
2023/03/06 06:18:52;;;;;;;15.00;7.13;;;3.50;97.10;;;;;;4985483;28;20044;-74
2023/03/06 06:21:18;;;;;;;15.88;8.32;;;3.50;97.00;;;;;;4985294;28;20033;-76
2023/03/06 06:23:45;;;;;;;12.10;6.75;;;3.50;97.00;;;;;;5002992;28;20039;-73
2023/03/06 06:26:10;;;;;;;13.57;7.15;;;3.50;97.00;;;;;;5002228;28;20308;-75
2023/03/06 06:28:36;;;;;;;13.60;7.07;;;3.50;96.90;;;;;;5002592;28;20069;-72
2023/03/06 06:31:11;;;;;;;12.63;6.93;;;3.60;96.80;;;;;;4985137;28;20038;-76
2023/03/06 06:33:37;;;;;;;13.40;6.93;;;3.60;96.60;;;;;;5003072;28;20042;-72
2023/03/06 06:36:03;;;;;;;13.43;7.57;;;3.60;96.60;;;;;;5001621;28;20369;-72
2023/03/06 06:38:28;;;;;;;13.60;7.40;;;3.60;96.50;;;;;;5002492;28;20030;-73
2023/03/06 06:40:54;;;;;;;16.48;6.85;;;3.60;96.40;;;;;;5002453;28;20022;-73
2023/03/06 06:43:20;;;;;;;15.02;8.07;;;3.60;96.60;;;;;;5001945;28;20060;-73
2023/03/06 06:45:47;;;;;;;13.13;7.43;;;3.70;96.30;;;;;;4984986;28;20312;-74
2023/03/06 06:48:12;;;;;;;11.80;6.72;;;3.70;96.50;;;;;;5002288;28;20042;-73
2023/03/06 06:50:38;;;;;;;15.18;7.25;;;3.70;96.20;;;;;;5002420;28;20038;-72
2023/03/06 06:53:03;;;;;;;13.80;6.80;;;3.70;96.10;;;;;;5001996;28;20093;-73
2023/03/06 06:55:29;;;;;;;15.88;7.35;;;3.80;96.00;;;;;;5002155;28;20069;-73
2023/03/06 06:57:55;;;;;;;13.50;7.50;;;3.80;96.00;;;;;;5002260;28;20280;-72
2023/03/06 07:00:21;;;;;;;13.30;7.43;;;3.80;95.70;;;;;;5000884;28;20018;-72
2023/03/06 07:02:48;;;;;;;16.92;7.70;;;3.90;95.80;;;;;;4988166;28;20052;-74
2023/03/06 07:05:14;;;;;;;15.65;7.50;;;3.90;95.70;;;;;;4982070;28;20038;-74
2023/03/06 07:07:40;;;;;;;13.77;7.20;;;4.00;95.80;;;;;;4983168;28;20364;-79
2023/03/06 07:10:12;;;;;;;13.57;7.10;;;4.00;95.80;;;;;;4982184;28;20085;-75
2023/03/06 07:12:38;;;;;;;14.75;6.55;;;4.10;95.60;;;;;;4982667;28;20316;-74
2023/03/06 07:15:05;;;;;;;13.48;7.53;;;4.10;95.50;;;;;;4969897;28;20055;-73
2023/03/06 07:17:33;;;;;;;15.45;7.60;;;4.20;95.50;;;;;;4963360;28;20107;-76
2023/03/06 07:19:59;;;;;;;;;;;4.20;95.30;;;;;;4963981;28;20039;-73
2023/03/06 07:22:25;;;;;;;13.80;6.60;;;4.10;95.10;;;;;;4973066;28;19906;-73
2023/03/06 07:24:50;;;;;;;13.93;7.15;;;4.20;95.20;;;;;;4966696;28;20324;-74
2023/03/06 07:27:16;;;;;;;11.70;6.93;;;4.20;95.20;;;;;;4963078;28;20046;-73
2023/03/06 07:29:42;;;;;;;14.23;7.35;;;4.30;95.00;;;;;;4963109;28;20027;-73
2023/03/06 07:32:09;;;;;;;13.60;6.97;;;4.30;95.00;;;;;;4962818;28;20031;-74
2023/03/06 07:34:34;;;;;;;14.10;7.60;;;4.40;94.90;;;;;;4963320;28;20015;-72
2023/03/06 07:37:00;;;;;;;14.77;7.03;;;4.50;94.90;;;;;;4963017;28;20320;-74
2023/03/06 07:39:27;;;;;;;12.77;7.13;;;4.50;94.70;;;;;;4962667;28;20262;-73
2023/03/06 07:41:52;;;;;;;13.48;7.28;;;4.60;94.40;;;;;;4963389;28;20078;-74
2023/03/06 07:44:18;;;;;;;14.88;7.50;;;4.60;94.40;;;;;;4962803;28;20059;-75
2023/03/06 07:46:44;;;;;;;13.98;7.10;;;4.60;94.40;;;;;;4945956;29;20043;-74
2023/03/06 07:49:10;;;;;;;12.13;7.07;;;4.60;94.50;;;;;;4965034;28;20031;-73
2023/03/06 07:51:36;;;;;;;14.30;6.78;;;4.60;94.50;;;;;;4966500;28;20042;-73
2023/03/06 07:54:01;;;;;;;13.57;6.90;;;4.60;94.50;;;;;;4966503;28;20207;-74
2023/03/06 07:56:27;;;;;;;14.27;7.18;;;4.70;94.60;;;;;;4978757;28;20031;-72
2023/03/06 07:58:53;;;;;;;12.63;6.57;;;4.70;94.40;;;;;;4966558;29;20034;-72
2023/03/06 08:01:22;;;;;;;11.07;6.15;;;4.70;94.30;;;;;;4964789;28;20284;-73
2023/03/06 08:03:48;;;;;;;14.70;7.03;;;4.80;94.30;;;;;;4965554;28;20285;-74
2023/03/06 08:06:17;;;;;;;14.50;7.15;;;4.90;94.30;;;;;;4979025;28;20035;-74
2023/03/06 08:08:47;;;;;;;12.45;6.75;;;5.00;94.10;;;;;;4966735;28;20034;-75
2023/03/06 08:11:15;;;;;;;14.38;7.40;;;5.00;94.10;;;;;;4965431;28;20270;-73
2023/03/06 08:13:40;;;;;;;13.93;6.93;;;5.00;94.00;;;;;;4966528;28;20082;-74
2023/03/06 08:16:07;;;;;;;13.48;6.72;;;5.10;94.00;;;;;;4965456;28;20368;-74
2023/03/06 08:18:33;;;;;;;11.65;6.55;;;5.20;93.90;;;;;;4965719;28;20055;-73
2023/03/06 08:21:10;;;;;;;15.63;7.15;;;5.40;93.70;;;;;;4965476;28;20034;-74
2023/03/06 08:23:40;;;;;;;13.47;7.03;;;5.30;93.50;;;;;;4956415;28;20107;-75
2023/03/06 08:26:12;;;;;;;14.65;6.72;;;5.40;93.40;;;;;;4965237;28;20312;-74
2023/03/06 08:28:38;;;;;;;10.50;6.07;;;5.60;93.20;;;;;;4965475;28;20043;-75
2023/03/06 08:31:18;;;;;;;11.85;6.45;;;5.70;92.90;;;;;;4965290;28;20094;-75
2023/03/06 08:33:44;;;;;;;12.60;6.38;;;5.70;93.00;;;;;;4963673;28;20038;-72
2023/03/06 08:36:09;;;;;;;11.52;6.43;;;5.70;92.70;;;;;;4965247;28;20098;-72
2023/03/06 08:38:35;;;;;;;10.98;6.57;;;5.70;92.80;;;;;;4965983;28;20031;-73
2023/03/06 08:41:01;;;;;;;9.85;5.78;;;5.80;92.80;;;;;;4965641;28;20082;-74
2023/03/06 08:43:26;;;;;;;11.00;5.40;;;5.80;92.20;;;;;;4965282;28;20280;-72
2023/03/06 08:45:57;;;;;;;9.82;5.18;;;5.80;92.30;;;;;;4965362;28;20030;-72
2023/03/06 08:48:23;;;;;;;10.05;5.63;;;6.00;92.20;;;;;;4965593;28;20042;-73
2023/03/06 08:50:50;;;;;;;10.52;6.03;;;5.80;92.40;;;;;;4965587;28;20316;-71
2023/03/06 08:53:16;;;;;;;11.57;5.72;;;6.00;92.70;;;;;;4964971;28;20273;-72
2023/03/06 08:55:41;;;;;;;10.25;5.50;;;6.10;92.00;;;;;;4965680;28;20058;-71
2023/03/06 08:58:07;;;;;;;11.00;5.80;;;6.30;92.20;;;;;;4964765;29;20356;-71
2023/03/06 09:00:34;;;;;;;10.05;5.20;;;6.40;91.50;;;;;;4964539;28;20023;-73
2023/03/06 09:03:00;;;;;;;9.75;5.57;;;6.50;91.20;;;;;;4947943;29;20106;-72
2023/03/06 09:05:26;;;;;;;10.18;5.18;;;6.50;91.40;;;;;;4963814;28;20035;-71
2023/03/06 09:07:52;;;;;;;10.00;5.38;;;6.50;91.10;;;;;;4964979;28;20043;-72
2023/03/06 09:10:20;;;;;;;9.27;5.40;;;6.70;90.80;;;;;;4964763;28;20277;-72
2023/03/06 09:12:46;;;;;;;10.40;5.60;;;6.60;90.90;;;;;;4947804;28;20019;-72
2023/03/06 09:15:12;;;;;;;9.90;5.18;;;6.50;91.00;;;;;;4964805;28;20373;-72
2023/03/06 09:17:38;;;;;;;9.13;5.03;;;6.70;90.90;;;;;;4965317;28;20206;-71
2023/03/06 09:20:07;;;;;;;10.80;4.88;;;6.70;91.10;;;;;;4964953;28;20039;-71
2023/03/06 09:22:33;;;;;;;9.35;5.40;;;6.70;91.20;;;;;;4965004;28;20086;-72
2023/03/06 09:24:58;;;;;;;8.30;4.25;;;6.80;91.10;;;;;;4965213;28;20039;-73
2023/03/06 09:27:27;;;;;;;10.02;5.20;;;6.80;90.90;;;;;;4964448;28;20050;-74
2023/03/06 09:29:53;;;;;;;8.38;4.57;;;6.70;91.10;;;;;;4964946;28;20031;-72
2023/03/06 09:32:19;;;;;;;8.77;5.05;;;6.60;91.10;;;;;;4964517;28;20042;-72
2023/03/06 09:34:45;;;;;;;9.18;4.95;;;6.50;91.20;;;;;;4964618;28;20081;-74
2023/03/06 09:37:11;;;;;;;7.25;4.65;;;6.40;91.30;;;;;;4960008;28;20055;-72
2023/03/06 09:39:36;;;;;;;8.07;4.47;;;6.50;91.30;;;;;;4964831;28;20049;-71
2023/03/06 09:42:06;;;;;;;14.18;5.03;;;6.60;91.30;;;;;;4964571;28;20027;-73
2023/03/06 09:44:34;;;;;;;9.85;5.35;;;6.50;91.60;;;;;;4964888;28;20285;-72
2023/03/06 09:47:09;;;;;;;10.40;5.25;;;6.50;91.40;;;;;;4954395;28;20384;-72
2023/03/06 09:49:40;;;;;;;8.35;5.07;;;6.40;91.60;;;;;;4964928;28;20066;-72
2023/03/06 09:52:15;;;;;;;8.23;4.55;;;6.40;91.60;;;;;;4963084;28;20098;-73
2023/03/06 09:54:46;;;;;;;10.32;5.80;;;6.50;91.40;;;;;;4964872;28;20321;-71
2023/03/06 09:57:27;;;;;;;8.93;5.07;;;6.50;91.60;;;;;;4963522;28;20094;-73
2023/03/06 10:00:00;;;;;;;10.10;5.05;;;6.30;91.80;;;;;;4947554;29;20031;-72
2023/03/06 10:02:32;;;;;;;11.20;5.45;;;6.40;91.80;;;;;;4959115;28;20058;-71
2023/03/06 10:05:02;;;;;;;8.82;5.50;;;6.30;91.70;;;;;;4943863;29;20029;-73
2023/03/06 10:07:45;;;;;;;10.45;5.57;;;6.50;91.70;;;;;;4944594;29;20046;-72
2023/03/06 10:10:21;;;;;;;9.88;5.10;;;6.50;91.70;;;;;;4935054;29;20136;-71
2023/03/06 10:12:58;;;;;;;8.98;5.50;;;6.50;91.90;;;;;;4944814;29;20296;-72
2023/03/06 10:15:30;;;;;;;9.32;5.40;;;6.50;91.90;;;;;;4944526;29;20043;-73
2023/03/06 10:17:56;;;;;;;8.15;4.82;;;6.60;91.90;;;;;;4944904;29;20028;-73
2023/03/06 10:20:41;;;;;;;10.07;5.40;;;6.50;91.30;;;;;;4944107;29;20058;-71
2023/03/06 10:23:32;;;;;;;9.65;5.32;;;6.50;91.60;;;;;;4944484;29;20036;-71
2023/03/06 10:26:06;;;;;;;10.50;5.45;;;6.70;91.70;;;;;;4944787;29;20032;-70
2023/03/06 10:28:50;;;;;;;9.02;5.10;;;6.60;91.60;;;;;;4944366;29;20335;-73
2023/03/06 10:31:25;;;;;;;8.98;5.20;;;6.50;91.50;;;;;;4943878;29;20095;-72
2023/03/06 10:33:54;;;;;;;8.13;4.57;;;6.50;91.40;;;;;;4944326;29;20058;-72
2023/03/06 10:36:25;;;;;;;8.13;4.85;;;6.50;91.40;;;;;;4944193;29;20041;-71
2023/03/06 10:38:52;;;;;;;11.10;5.53;;;6.80;91.20;;;;;;4944405;29;20286;-72
2023/03/06 10:41:24;;;;;;;9.27;5.10;;;6.70;91.00;;;;;;4944098;29;20109;-72
2023/03/06 10:43:58;;;;;;;8.27;4.75;;;6.70;91.00;;;;;;4944301;29;20206;-72
2023/03/06 10:46:33;;;;;;;8.68;4.97;;;6.70;91.00;;;;;;4943961;29;20058;-73
2023/03/06 10:49:01;;;;;;;8.93;5.28;;;6.60;90.50;;;;;;4944354;29;20037;-71
2023/03/06 10:51:29;;;;;;;9.65;5.10;;;6.60;90.90;;;;;;4944075;29;20059;-70
2023/03/06 10:54:22;;;;;;;9.90;5.30;;;6.40;91.00;;;;;;4944120;29;20328;-72
2023/03/06 10:56:48;;;;;;;8.77;5.05;;;6.40;91.00;;;;;;4933200;29;20062;-73
2023/03/06 10:59:27;;;;;;;8.82;4.75;;;6.50;90.90;;;;;;4943765;29;20043;-71
2023/03/06 11:02:12;;;;;;;10.65;5.15;;;6.50;90.60;;;;;;4947013;29;20058;-72
2023/03/06 11:04:40;;;;;;;9.95;5.40;;;6.70;90.60;;;;;;4963429;28;20031;-71
2023/03/06 11:07:29;;;;;;;10.80;5.15;;;6.70;90.50;;;;;;4963206;28;20047;-73
2023/03/06 11:09:57;;;;;;;9.75;4.80;;;6.90;90.20;;;;;;4963611;28;20031;-73
2023/03/06 11:12:33;;;;;;;;;;;7.00;89.90;;;;;;4963273;28;20034;-71
2023/03/06 11:15:19;;;;;;;9.95;5.40;;;7.10;90.20;;;;;;4959917;28;19913;-73
2023/03/06 11:18:43;;;;;;;8.98;5.13;;;7.20;89.50;;;;;;4962301;28;20050;-72
2023/03/06 11:21:41;;;;;;;8.63;4.75;;;7.30;88.60;;;;;;4963007;28;20039;-71
2023/03/06 11:24:17;;;;;;;;;;;7.30;88.20;;;;;;4924263;29;20058;-73
2023/03/06 11:27:08;;;;;;;10.48;4.95;;;7.30;87.50;;;;;;4967041;28;19910;-74
2023/03/06 11:29:47;;;;;;;6.78;4.30;;;7.20;88.30;;;;;;4953205;28;20265;-72
2023/03/06 11:32:23;;;;;;;8.93;4.90;;;7.40;88.10;;;;;;4963902;28;20242;-72
2023/03/06 11:34:53;;;;;;;8.95;5.10;;;7.70;88.10;;;;;;4966490;28;20270;-75
2023/03/06 11:37:31;;;;;;;9.18;5.40;;;7.90;86.30;;;;;;4966972;28;20039;-71
2023/03/06 11:40:09;;;;;;;8.93;5.30;;;8.00;85.80;;;;;;4966809;28;20165;-74
2023/03/06 11:42:50;;;;;;;;;;;7.90;86.10;;;;;;4968495;28;20090;-74
2023/03/06 11:45:50;;;;;;;8.00;4.90;;;7.80;85.80;;;;;;4974998;28;19929;-73
2023/03/06 11:48:34;;;;;;;6.85;4.72;;;7.60;85.90;;;;;;4949367;29;20058;-75
2023/03/06 11:51:24;;;;;;;12.23;5.30;;;7.70;86.20;;;;;;4965757;28;20313;-73
2023/03/06 11:53:52;;;;;;;8.95;5.13;;;8.00;85.70;;;;;;4963792;28;20325;-75
2023/03/06 11:56:17;;;;;;;8.85;4.45;;;8.20;84.40;;;;;;4966037;29;20042;-75
2023/03/06 11:59:34;;;;;;;8.63;5.18;;;8.40;84.60;;;;;;4966728;28;20278;-74
2023/03/06 12:02:20;;;;;;;8.80;4.57;;;8.40;83.70;;;;;;4911592;29;20051;-76
2023/03/06 12:05:07;;;;;;;9.13;5.40;;;8.80;82.60;;;;;;4957577;28;20075;-74
2023/03/06 12:07:40;;;;;;;8.48;4.95;;;8.90;81.80;;;;;;4955756;28;20040;-75
2023/03/06 12:10:22;;;;;;;8.88;5.18;;;8.80;82.50;;;;;;4958916;28;20336;-79
2023/03/06 12:13:05;;;;;;;8.98;5.07;;;9.00;81.90;;;;;;4964314;28;20042;-74
2023/03/06 12:16:03;;;;;;;9.75;5.10;;;9.20;81.60;;;;;;4965567;28;20216;-75
2023/03/06 12:18:29;;;;;;;;;;;9.50;81.00;;;;;;4923697;29;20221;-75
2023/03/06 12:21:28;;;;;;;9.15;5.20;;;9.50;80.40;;;;;;4965827;28;19944;-75
2023/03/06 12:24:02;;;;;;;9.50;5.88;;;9.80;79.10;;;;;;4965971;28;20210;-74
2023/03/06 12:26:39;;;;;;;8.27;5.03;;;9.70;78.70;;;;;;4965575;28;20027;-73
2023/03/06 12:29:23;;;;;;;7.90;4.97;;;9.80;78.90;;;;;;4966011;28;20058;-75
2023/03/06 12:32:05;;;;;;;9.98;5.50;;;9.40;79.10;;;;;;4966070;28;20023;-77
2023/03/06 12:34:55;;;;;;;9.70;4.78;;;9.00;79.20;;;;;;4965497;28;20031;-74
2023/03/06 12:38:02;;;;;;;7.72;4.68;;;8.90;77.60;;;;;;4965711;28;20035;-74
2023/03/06 12:40:35;;;;;;;8.57;5.13;;;8.60;78.90;;;;;;4948798;28;20213;-73
2023/03/06 12:43:17;;;;;;;9.05;4.70;;;8.30;80.30;;;;;;4965888;28;20291;-74
2023/03/06 12:45:44;;;;;;;7.80;4.53;;;8.20;81.30;;;;;;4964596;28;20035;-73
2023/03/06 12:48:21;;;;;;;8.38;5.05;;;8.40;80.50;;;;;;4965779;28;20191;-74
2023/03/06 12:50:48;;;;;;;8.02;4.80;;;8.30;80.70;;;;;;4948954;28;20023;-74
2023/03/06 12:53:26;;;;;;;8.20;4.85;;;8.30;80.50;;;;;;4963676;28;20035;-76
2023/03/06 12:55:53;;;;;;;10.27;4.68;;;8.10;80.90;;;;;;4961931;28;20031;-74
2023/03/06 12:58:28;;;;;;;8.68;4.60;;;8.00;81.20;;;;;;4965050;28;20046;-73
2023/03/06 13:01:32;;;;;;;8.18;5.30;;;8.00;80.80;;;;;;4965061;28;20042;-73
2023/03/06 13:04:38;;;;;;;8.35;5.13;;;8.20;81.40;;;;;;4927189;29;20083;-75
2023/03/06 13:07:09;;;;;;;7.93;4.85;;;8.30;80.80;;;;;;4926906;29;20043;-73
2023/03/06 13:10:00;;;;;;;8.68;5.07;;;8.20;80.30;;;;;;4926184;29;20075;-75
2023/03/06 13:12:45;;;;;;;7.70;4.25;;;8.20;80.60;;;;;;4941372;29;20036;-74
2023/03/06 13:15:40;;;;;;;8.55;5.28;;;8.10;79.80;;;;;;4927167;29;20127;-73
2023/03/06 13:18:20;;;;;;;9.65;4.88;;;8.20;80.20;;;;;;4927112;29;20028;-74
2023/03/06 13:20:47;;;;;;;9.20;4.35;;;8.40;80.40;;;;;;4926637;29;20035;-74
2023/03/06 13:23:28;;;;;;;9.57;5.20;;;8.30;80.90;;;;;;4926871;29;20099;-72
2023/03/06 13:25:56;;;;;;;9.60;4.32;;;8.00;81.30;;;;;;4926961;29;20028;-73
2023/03/06 13:28:43;;;;;;;8.65;4.75;;;7.90;81.70;;;;;;4926098;29;20300;-74
2023/03/06 13:31:10;;;;;;;7.75;4.38;;;7.90;81.10;;;;;;4926789;29;20051;-73
2023/03/06 13:33:36;;;;;;;9.70;4.75;;;7.80;81.30;;;;;;4926159;29;20108;-74
2023/03/06 13:36:25;;;;;;;8.65;4.78;;;7.80;81.50;;;;;;4926094;29;20055;-73
2023/03/06 13:38:51;;;;;;;9.90;4.50;;;7.90;81.40;;;;;;4926318;29;20039;-73
2023/03/06 13:41:23;;;;;;;8.32;4.35;;;8.10;81.20;;;;;;4924779;29;20059;-74
2023/03/06 13:43:55;;;;;;;7.50;4.47;;;8.20;80.60;;;;;;4926247;29;20059;-75
2023/03/06 13:46:33;;;;;;;7.68;4.18;;;8.30;80.50;;;;;;4925363;29;20044;-74
2023/03/06 13:49:09;;;;;;;9.82;4.47;;;8.30;81.00;;;;;;4926515;29;20036;-74
2023/03/06 13:51:37;;;;;;;6.78;4.18;;;8.40;80.20;;;;;;4925829;29;20036;-76
2023/03/06 13:54:03;;;;;;;;;;;8.30;79.70;;;;;;4926217;29;20186;-76
2023/03/06 13:56:55;;;;;;;8.00;3.90;;;8.20;80.30;;;;;;4925771;29;19978;-74
2023/03/06 13:59:32;;;;;;;7.25;4.13;;;8.10;79.20;;;;;;4924378;29;20198;-76
2023/03/06 14:02:32;;;;;;;10.18;4.40;;;8.10;79.40;;;;;;4928503;29;20079;-78
2023/03/06 14:05:09;;;;;;;7.50;4.20;;;7.90;80.00;;;;;;4943759;29;20095;-76
2023/03/06 14:07:41;;;;;;;8.25;4.18;;;7.80;79.60;;;;;;4944250;29;20039;-74
2023/03/06 14:10:09;;;;;;;6.85;4.03;;;7.80;80.10;;;;;;4944979;29;20031;-74
2023/03/06 14:12:40;;;;;;;7.13;3.60;;;7.80;80.10;;;;;;4944700;29;20055;-76
2023/03/06 14:15:34;;;;;;;6.60;4.07;;;7.80;79.90;;;;;;4945021;29;20135;-74
2023/03/06 14:18:01;;;;;;;8.02;4.30;;;7.70;78.80;;;;;;4945034;29;20031;-74
2023/03/06 14:20:38;;;;;;;7.70;4.15;;;7.50;79.90;;;;;;4944896;29;20055;-75
2023/03/06 14:23:24;;;;;;;8.87;4.47;;;7.50;80.30;;;;;;4932073;29;20077;-75
2023/03/06 14:26:22;;;;;;;10.43;4.70;;;7.60;79.30;;;;;;4959460;28;20475;-73
2023/03/06 14:28:51;;;;;;;6.72;3.75;;;7.50;79.30;;;;;;4932337;29;20050;-74
2023/03/06 14:31:22;;;;;;;7.70;3.72;;;7.50;80.00;;;;;;4944832;29;20039;-75
2023/03/06 14:33:55;;;;;;;8.52;4.82;;;7.40;80.70;;;;;;4944677;29;20309;-73
2023/03/06 14:36:25;;;;;;;8.63;4.07;;;7.40;80.70;;;;;;4931303;29;20301;-75
2023/03/06 14:38:54;;;;;;;9.15;4.60;;;7.20;80.60;;;;;;4944401;29;20024;-75
2023/03/06 14:41:30;;;;;;;8.40;4.82;;;7.20;80.60;;;;;;4943069;29;20041;-74
2023/03/06 14:44:23;;;;;;;9.30;4.50;;;7.20;80.80;;;;;;4944231;29;20095;-74
2023/03/06 14:46:54;;;;;;;9.23;4.10;;;7.20;80.80;;;;;;4944725;29;20337;-73
2023/03/06 14:49:21;;;;;;;7.65;4.90;;;7.10;81.20;;;;;;4944087;29;20217;-75
2023/03/06 14:51:53;;;;;;;8.07;4.68;;;7.10;80.60;;;;;;4944654;29;20067;-74
2023/03/06 14:54:31;;;;;;;7.75;4.47;;;7.00;80.90;;;;;;4944424;29;20074;-75
2023/03/06 14:57:18;;;;;;;9.65;5.10;;;7.00;81.20;;;;;;4959430;28;20047;-74
2023/03/06 14:59:52;;;;;;;8.50;4.80;;;7.00;80.80;;;;;;4944965;29;20050;-74
2023/03/06 15:02:22;;;;;;;11.13;4.78;;;6.80;80.80;;;;;;4944959;28;20043;-75
2023/03/06 15:04:53;;;;;;;9.15;4.72;;;6.80;81.50;;;;;;4959653;28;20095;-73
2023/03/06 15:07:29;;;;;;;9.77;5.30;;;6.70;80.80;;;;;;4962070;28;20082;-75
2023/03/06 15:09:55;;;;;;;7.93;4.63;;;6.60;81.30;;;;;;4967135;28;20355;-73
2023/03/06 15:12:30;;;;;;;9.35;5.63;;;6.60;81.60;;;;;;4967036;28;20043;-74
2023/03/06 15:15:02;;;;;;;9.57;4.80;;;6.60;82.20;;;;;;4960422;28;20031;-74
2023/03/06 15:17:47;;;;;;;8.05;4.75;;;6.70;81.70;;;;;;4964729;28;20109;-73
2023/03/06 15:20:40;;;;;;;12.23;5.22;;;6.70;81.80;;;;;;4967065;28;20027;-73
2023/03/06 15:23:20;;;;;;;8.15;4.75;;;6.70;81.90;;;;;;4954879;28;20047;-73
2023/03/06 15:26:28;;;;;;;11.30;5.07;;;6.70;82.00;;;;;;4967298;28;20035;-75
2023/03/06 15:28:58;;;;;;;9.85;4.93;;;6.70;82.10;;;;;;4966817;28;20305;-73
2023/03/06 15:31:29;;;;;;;9.07;4.93;;;6.70;82.10;;;;;;4966739;28;20027;-74
2023/03/06 15:34:16;;;;;;;8.48;4.55;;;6.50;82.50;;;;;;4966827;28;20038;-75
2023/03/06 15:36:44;;;;;;;8.93;4.60;;;6.50;82.90;;;;;;4967217;28;20078;-73
2023/03/06 15:39:29;;;;;;;9.50;5.50;;;6.40;83.40;;;;;;4966206;28;20070;-73
2023/03/06 15:42:24;;;;;;;9.27;4.75;;;6.30;83.80;;;;;;4949832;29;20301;-74
2023/03/06 15:44:59;;;;;;;10.00;5.65;;;6.20;84.50;;;;;;4955874;28;20194;-74
2023/03/06 15:47:24;;;;;;;8.68;4.88;;;6.10;84.80;;;;;;4968156;28;20039;-74
2023/03/06 15:49:53;;;;;;;8.75;4.95;;;6.00;85.50;;;;;;4978107;28;20038;-74
2023/03/06 15:52:20;;;;;;;9.00;5.13;;;6.00;86.20;;;;;;4965699;28;20418;-74
2023/03/06 15:54:47;;;;;;;10.48;5.22;;;6.00;86.70;;;;;;4966590;29;20027;-74
2023/03/06 15:57:25;;;;;;;11.82;5.40;;;5.90;87.10;;;;;;4966942;28;20039;-75
2023/03/06 15:59:52;;;;;;;9.05;5.38;;;5.80;87.50;;;;;;4967044;28;20035;-75
2023/03/06 16:02:20;;;;;;;10.93;5.45;;;5.80;88.20;;;;;;4966206;28;20051;-73
2023/03/06 16:04:46;;;;;;;10.02;5.93;;;5.70;88.80;;;;;;4965926;28;20051;-74
2023/03/06 16:07:12;;;;;;;10.90;5.43;;;5.80;89.40;;;;;;4949189;28;20046;-74
2023/03/06 16:09:40;;;;;;;9.55;5.30;;;5.70;89.70;;;;;;4965488;28;20031;-73
2023/03/06 16:12:12;;;;;;;9.23;5.22;;;5.70;90.10;;;;;;4966424;28;20206;-72
2023/03/06 16:14:39;;;;;;;10.07;5.07;;;5.70;90.30;;;;;;4966344;28;20042;-72
2023/03/06 16:17:04;;;;;;;8.80;4.93;;;5.70;90.70;;;;;;4966279;28;20043;-73
2023/03/06 16:19:30;;;;;;;9.43;5.35;;;5.60;91.00;;;;;;4966101;28;20332;-72
2023/03/06 16:21:56;;;;;;;10.82;5.45;;;5.50;91.40;;;;;;4966131;28;20094;-74
2023/03/06 16:24:24;;;;;;;11.15;5.68;;;5.50;91.70;;;;;;4966239;28;20031;-74
2023/03/06 16:26:51;;;;;;;;;;;5.50;91.80;;;;;;4966566;28;20039;-75
2023/03/06 16:29:24;;;;;;;12.13;6.35;;;5.40;91.90;;;;;;4966324;28;19911;-74
2023/03/06 16:31:51;;;;;;;11.52;6.70;;;5.40;92.00;;;;;;4965978;28;20043;-74
2023/03/06 16:34:18;;;;;;;11.07;6.30;;;5.40;92.10;;;;;;4965855;28;20088;-73
2023/03/06 16:36:44;;;;;;;12.43;6.32;;;5.30;92.20;;;;;;4965623;28;20047;-73
2023/03/06 16:39:21;;;;;;;9.10;5.70;;;5.40;92.30;;;;;;4948501;29;20078;-72
2023/03/06 16:41:51;;;;;;;11.25;6.18;;;5.30;92.40;;;;;;4965481;28;20045;-75
2023/03/06 16:44:17;;;;;;;11.02;5.72;;;5.30;92.60;;;;;;4965757;28;20034;-72
2023/03/06 16:46:45;;;;;;;10.07;5.72;;;5.30;92.50;;;;;;4965414;28;20043;-72
2023/03/06 16:49:20;;;;;;;11.23;6.05;;;5.30;92.40;;;;;;4949031;29;20103;-73
2023/03/06 16:51:47;;;;;;;11.18;6.65;;;5.20;92.60;;;;;;4964911;28;20074;-74
2023/03/06 16:54:13;;;;;;;12.90;6.13;;;5.20;92.60;;;;;;4965535;28;20242;-73
2023/03/06 16:56:38;;;;;;;9.65;5.75;;;5.20;92.70;;;;;;4965068;28;20314;-74
2023/03/06 16:59:04;;;;;;;12.40;6.55;;;5.10;92.90;;;;;;4965846;28;20062;-74
2023/03/06 17:01:30;;;;;;;13.90;6.65;;;5.10;93.00;;;;;;4964866;28;20059;-76
2023/03/06 17:03:56;;;;;;;9.60;6.00;;;5.20;93.00;;;;;;4965276;28;20270;-73
2023/03/06 17:06:22;;;;;;;12.27;6.35;;;5.20;93.10;;;;;;4965311;28;20069;-72
2023/03/06 17:08:48;;;;;;;12.93;7.00;;;5.10;93.30;;;;;;4964943;28;20309;-74
2023/03/06 17:11:15;;;;;;;12.27;6.43;;;5.10;93.40;;;;;;4965029;28;20055;-73
2023/03/06 17:13:41;;;;;;;10.20;6.07;;;5.00;93.50;;;;;;4965220;28;20027;-72
2023/03/06 17:16:08;;;;;;;11.02;6.43;;;4.90;93.60;;;;;;4965260;28;20236;-72
2023/03/06 17:18:34;;;;;;;12.80;6.40;;;4.90;93.80;;;;;;4965018;28;20027;-75
2023/03/06 17:21:00;;;;;;;11.35;6.45;;;4.90;94.20;;;;;;4964517;28;20026;-73
2023/03/06 17:23:30;;;;;;;14.45;7.55;;;5.00;94.00;;;;;;4965392;28;20035;-72
2023/03/06 17:26:03;;;;;;;14.73;7.28;;;5.00;94.50;;;;;;4948041;28;20115;-72
2023/03/06 17:28:29;;;;;;;11.20;6.50;;;5.00;94.50;;;;;;4947587;29;20144;-72
2023/03/06 17:30:55;;;;;;;12.68;6.97;;;4.90;94.80;;;;;;4948090;28;20113;-73
2023/03/06 17:33:21;;;;;;;14.00;7.57;;;4.80;95.30;;;;;;4965043;28;20069;-73
2023/03/06 17:35:46;;;;;;;14.48;7.40;;;4.70;95.60;;;;;;4964609;28;20297;-74
2023/03/06 17:38:12;;;;;;;13.88;7.10;;;4.60;95.90;;;;;;4964059;28;20317;-73
2023/03/06 17:40:38;;;;;;;14.00;7.43;;;4.50;96.70;;;;;;4964873;28;20094;-74
2023/03/06 17:43:03;;;;;;;13.73;7.10;;;4.50;96.70;;;;;;4960561;28;20035;-73
2023/03/06 17:45:29;;;;;;;15.70;7.65;;;4.50;96.80;;;;;;4956514;28;20324;-73
2023/03/06 17:47:56;;;;;;;15.13;7.57;;;4.40;97.30;;;;;;4954675;28;20035;-76
2023/03/06 17:50:22;;;;;;;13.80;7.07;;;4.40;97.60;;;;;;4962207;28;20023;-74
2023/03/06 17:52:48;;;;;;;13.57;7.25;;;4.30;97.50;;;;;;4964096;28;20254;-74
2023/03/06 17:55:13;;;;;;;14.40;7.50;;;4.30;97.90;;;;;;4963243;28;20085;-74
2023/03/06 17:57:39;;;;;;;14.93;7.78;;;4.20;98.40;;;;;;4963803;28;20199;-75
2023/03/06 18:00:06;;;;;;;12.95;7.22;;;4.30;98.40;;;;;;4964379;28;20016;-75
2023/03/06 18:02:37;;;;;;;11.48;7.03;;;4.20;98.40;;;;;;4963544;28;20053;-74
2023/03/06 18:05:04;;;;;;;14.18;7.75;;;4.30;98.40;;;;;;4964475;28;20035;-75
2023/03/06 18:07:29;;;;;;;14.88;7.55;;;4.30;98.30;;;;;;4962474;28;20306;-74
2023/03/06 18:09:55;;;;;;;13.93;8.27;;;4.30;98.60;;;;;;4963300;28;20087;-74
2023/03/06 18:12:22;;;;;;;16.25;8.00;;;4.20;99.10;;;;;;4963202;28;20062;-73
2023/03/06 18:14:49;;;;;;;14.23;7.53;;;4.20;99.50;;;;;;4963842;28;20039;-74
2023/03/06 18:17:15;;;;;;;17.05;8.70;;;4.20;99.10;;;;;;4964429;28;20102;-74
2023/03/06 18:19:41;;;;;;;16.08;8.00;;;4.20;99.10;;;;;;4964143;28;20023;-74
2023/03/06 18:22:06;;;;;;;14.32;7.85;;;4.20;99.20;;;;;;4964171;28;20309;-73
2023/03/06 18:24:32;;;;;;;14.32;8.02;;;4.30;98.90;;;;;;4970086;28;20129;-77
2023/03/06 18:26:58;;;;;;;16.10;7.85;;;4.30;98.80;;;;;;4971004;28;20246;-74
2023/03/06 18:29:23;;;;;;;13.15;7.15;;;4.30;98.50;;;;;;4963951;28;20027;-74
2023/03/06 18:31:49;;;;;;;13.27;7.47;;;4.40;98.60;;;;;;4963425;28;20035;-72
2023/03/06 18:34:16;;;;;;;15.55;7.97;;;4.30;97.60;;;;;;4976044;28;20035;-74
2023/03/06 18:36:42;;;;;;;15.43;7.90;;;4.40;97.40;;;;;;4963457;28;20073;-75
2023/03/06 18:39:10;;;;;;;14.15;7.47;;;4.40;97.10;;;;;;4963786;28;20046;-76
2023/03/06 18:41:37;;;;;;;13.10;7.15;;;4.40;96.90;;;;;;4963517;28;20224;-73
2023/03/06 18:44:03;;;;;;;13.55;7.30;;;4.40;96.60;;;;;;4946798;29;20332;-75
2023/03/06 18:46:31;;;;;;;16.27;7.60;;;4.40;96.70;;;;;;4962617;28;20318;-73
2023/03/06 18:48:58;;;;;;;14.25;7.32;;;4.40;96.60;;;;;;4963019;28;20027;-73